createdAt,value
2022-08-08T00:02:58.801Z,102088.22
2022-08-08T00:08:27.568Z,102099.47
2022-08-08T00:14:16.880Z,102097.69
2022-08-08T00:19:51.510Z,102098.78
2022-08-08T00:25:20.636Z,102092.19
2022-08-08T00:31:00.559Z,102095.97
2022-08-08T00:36:35.128Z,102089.25
2022-08-08T00:42:36.761Z,102097.75
2022-08-08T00:48:55.146Z,102095.81
2022-08-08T00:55:17.515Z,102100.88
2022-08-08T01:00:56.300Z,102105.84
2022-08-08T01:06:50.904Z,102110.25
2022-08-08T01:12:50.906Z,102118.22
2022-08-08T01:18:52.610Z,102102.53
2022-08-08T01:25:05.078Z,102101.88
2022-08-08T01:32:13.343Z,102098.41
2022-08-08T01:37:56.291Z,102091.88
2022-08-08T01:43:45.879Z,102096.72
2022-08-08T01:49:22.925Z,102091.06
2022-08-08T01:55:26.798Z,102101.06
2022-08-08T02:01:16.043Z,102094.31
2022-08-08T02:06:57.154Z,102092.22
2022-08-08T02:12:30.779Z,102082.13
2022-08-08T02:18:03.032Z,102095.19
2022-08-08T02:23:35.355Z,102091.75
2022-08-08T02:29:19.055Z,102095.75
2022-08-08T02:35:07.766Z,102099.28
2022-08-08T02:40:45.195Z,102090.41
2022-08-08T02:46:31.496Z,102099.81
2022-08-08T02:52:34.872Z,102091.66
2022-08-08T02:58:35.043Z,102086.69
2022-08-08T03:05:05.048Z,102092.66
2022-08-08T03:10:57.467Z,102096.53
2022-08-08T03:16:37.242Z,102101.94
2022-08-08T03:22:01.680Z,102098.63
2022-08-08T03:27:35.793Z,102101.50
2022-08-08T03:33:54.770Z,102110.75
2022-08-08T03:39:15.115Z,102116.38
2022-08-08T03:44:40.783Z,102120.13
2022-08-08T03:50:19.690Z,102121.97
2022-08-08T03:55:57.208Z,102120.31
2022-08-08T04:01:23.961Z,102134.03
2022-08-08T04:06:57.277Z,102136.03
2022-08-08T04:12:29.144Z,102136.63
2022-08-08T04:17:59.204Z,102133.16
2022-08-08T04:23:23.196Z,102135.41
2022-08-08T04:28:47.923Z,102136.69
2022-08-08T04:34:20.103Z,102138.59
2022-08-08T04:40:03.341Z,102139.91
2022-08-08T04:45:29.724Z,102143.00
2022-08-08T04:50:56.809Z,102147.59
2022-08-08T04:56:25.735Z,102154.69
2022-08-08T05:01:48.979Z,102164.13
2022-08-08T05:07:15.865Z,102154.88
2022-08-08T05:12:59.771Z,102163.53
2022-08-08T05:18:22.608Z,102165.69
2022-08-08T05:24:04.141Z,102175.41
2022-08-08T05:29:29.315Z,102173.81
2022-08-08T05:34:54.381Z,102157.13
2022-08-08T05:40:28.332Z,102170.50
2022-08-08T05:46:03.616Z,102176.63
2022-08-08T05:51:48.057Z,102178.00
2022-08-08T05:57:57.389Z,102180.59
2022-08-08T06:03:17.702Z,102182.22
2022-08-08T06:08:55.104Z,102187.88
2022-08-08T06:14:26.312Z,102187.03
2022-08-08T06:19:50.461Z,102202.53
2022-08-08T06:25:13.642Z,102207.13
2022-08-08T06:30:40.347Z,102208.41
2022-08-08T06:36:09.781Z,102213.28
2022-08-08T06:41:35.151Z,102214.47
2022-08-08T06:47:01.699Z,102209.09
2022-08-08T06:52:27.868Z,102216.69
2022-08-08T06:57:56.012Z,102222.97
2022-08-08T07:03:52.342Z,102231.06
2022-08-08T07:09:20.839Z,102233.31
2022-08-08T07:14:54.008Z,102236.94
2022-08-08T07:20:28.220Z,102189.97
2022-08-08T07:25:55.427Z,102254.38
2022-08-08T07:31:22.001Z,102247.66
2022-08-08T07:36:50.772Z,102247.22
2022-08-08T07:42:18.875Z,102247.19
2022-08-08T07:47:49.036Z,102250.84
2022-08-08T07:53:52.257Z,102252.19
2022-08-08T07:59:14.402Z,102165.44
2022-08-08T08:04:46.765Z,102264.63
2022-08-08T08:10:17.985Z,102259.41
2022-08-08T08:16:01.376Z,102263.72
2022-08-08T08:21:44.907Z,102263.47
2022-08-08T08:27:30.208Z,102266.03
2022-08-08T08:32:54.524Z,102258.91
2022-08-08T08:38:21.541Z,102250.47
2022-08-08T08:44:13.439Z,102269.72
2022-08-08T08:49:42.968Z,102261.28
2022-08-08T08:55:10.206Z,102258.69
2022-08-08T09:01:05.292Z,102267.25
2022-08-08T09:06:33.276Z,102266.16
2022-08-08T09:12:06.463Z,102267.63
2022-08-08T09:17:41.664Z,102259.28
2022-08-08T09:23:17.746Z,102267.69
2022-08-08T09:28:47.798Z,102276.31
2022-08-08T09:34:32.899Z,102275.50
2022-08-08T09:40:03.789Z,102278.19
2022-08-08T09:45:54.935Z,102274.13
2022-08-08T09:51:25.705Z,102268.94
2022-08-08T09:56:55.256Z,102266.38
2022-08-08T10:02:24.711Z,102265.25
2022-08-08T10:07:59.721Z,102273.66
2022-08-08T10:13:29.993Z,102276.63
2022-08-08T10:19:04.297Z,102237.41
2022-08-08T10:24:34.904Z,102265.56
2022-08-08T10:30:01.177Z,102256.47
2022-08-08T10:36:09.339Z,102267.25
2022-08-08T10:41:20.012Z,102263.88
2022-08-08T10:46:43.701Z,102267.25
2022-08-08T10:52:11.387Z,102266.25
2022-08-08T10:57:49.967Z,102253.06
2022-08-08T11:03:16.434Z,102249.34
2022-08-08T11:08:42.888Z,102239.13
2022-08-08T11:14:16.462Z,102239.09
2022-08-08T11:19:40.954Z,102238.66
2022-08-08T11:25:14.059Z,102246.47
2022-08-08T11:30:40.847Z,102234.97
2022-08-08T11:36:14.838Z,102236.09
2022-08-08T11:41:38.601Z,102241.25
2022-08-08T11:47:13.012Z,102240.03
2022-08-08T11:52:47.267Z,102237.81
2022-08-08T11:58:14.652Z,102233.94
2022-08-08T12:03:49.319Z,102217.00
2022-08-08T12:09:17.059Z,102224.31
2022-08-08T12:14:42.011Z,102221.84
2022-08-08T12:20:19.028Z,102228.97
2022-08-08T12:25:44.967Z,102226.78
2022-08-08T12:31:15.783Z,102228.13
2022-08-08T12:36:46.505Z,102211.66
2022-08-08T12:42:20.984Z,102222.47
2022-08-08T12:48:04.891Z,102214.81
2022-08-08T12:53:37.727Z,102203.69
2022-08-08T12:59:19.082Z,102217.69
2022-08-08T13:04:52.076Z,102216.81
2022-08-08T13:10:56.383Z,101838.47
2022-08-08T13:16:30.359Z,102200.41
2022-08-08T13:40:41.037Z,101882.09
2022-08-08T13:46:26.459Z,101979.25
2022-08-08T13:58:08.863Z,102145.78
2022-08-08T14:03:58.027Z,102191.78
2022-08-08T14:15:31.249Z,101918.88
2022-08-08T14:21:12.760Z,102153.53
2022-08-08T14:26:46.387Z,102185.59
2022-08-08T14:32:16.047Z,102184.25
2022-08-08T14:37:57.193Z,102177.47
2022-08-08T14:44:02.079Z,102174.72
2022-08-08T14:49:32.107Z,102117.16
2022-08-08T14:54:58.942Z,102147.56
2022-08-08T15:00:22.739Z,102173.41
2022-08-08T15:05:53.878Z,102139.47
2022-08-08T15:11:24.123Z,102127.00
2022-08-08T15:22:25.954Z,102132.94
2022-08-08T15:28:04.139Z,102087.41
2022-08-08T15:33:38.137Z,102172.72
2022-08-08T15:39:22.467Z,102169.13
2022-08-08T15:44:51.463Z,102111.88
2022-08-08T15:50:20.610Z,102113.75
2022-08-08T15:55:44.431Z,102148.84
2022-08-08T16:01:11.931Z,102140.34
2022-08-08T16:06:36.385Z,102139.50
2022-08-08T16:13:10.359Z,102069.22
2022-08-08T16:18:06.218Z,102075.81
2022-08-08T16:23:32.394Z,102137.47
2022-08-08T16:28:56.174Z,102117.94
2022-08-08T16:34:24.833Z,102099.66
2022-08-08T16:40:02.589Z,102122.97
2022-08-08T16:46:36.418Z,102093.50
2022-08-08T16:55:03.230Z,102114.53
2022-08-08T16:57:03.962Z,102100.84
2022-08-08T17:02:45.056Z,102139.97
2022-08-08T17:08:10.151Z,102137.88
2022-08-08T17:13:49.773Z,102072.03
2022-08-08T17:19:13.845Z,102092.97
2022-08-08T17:24:42.449Z,102126.84
2022-08-08T17:30:08.217Z,102155.66
2022-08-08T17:35:55.138Z,102151.72
2022-08-08T17:41:17.408Z,102158.44
2022-08-08T17:46:49.374Z,102153.78
2022-08-08T17:52:14.415Z,102162.72
2022-08-08T17:57:40.117Z,102132.56
2022-08-08T18:03:08.904Z,102085.84
2022-08-08T18:08:41.101Z,102170.03
2022-08-08T18:14:21.894Z,102099.19
2022-08-08T18:37:09.673Z,101969.13
2022-08-08T18:42:33.476Z,102177.22
2022-08-08T18:47:59.555Z,102123.06
2022-08-08T18:53:23.540Z,102169.47
2022-08-08T19:10:57.178Z,102135.91
2022-08-08T19:16:21.407Z,102111.50
2022-08-08T19:21:49.762Z,102238.88
2022-08-08T19:27:14.931Z,102230.75
2022-08-08T19:32:38.900Z,102245.13
2022-08-08T19:38:05.610Z,102152.16
2022-08-08T19:49:07.710Z,102243.19
2022-08-08T19:54:59.558Z,102265.13
2022-08-08T20:00:32.586Z,102281.81
2022-08-08T20:06:13.967Z,102259.56
2022-08-08T20:11:43.094Z,102243.94
2022-08-08T20:17:06.438Z,102260.97
2022-08-08T20:22:33.433Z,102265.88
2022-08-08T20:28:06.413Z,102281.00
2022-08-08T20:34:02.024Z,102298.38
2022-08-08T20:39:15.105Z,102290.84
2022-08-08T20:44:40.513Z,102261.00
2022-08-08T20:50:04.066Z,102301.13
2022-08-08T20:55:30.824Z,102268.44
2022-08-08T21:01:07.118Z,102281.56
2022-08-08T21:06:53.033Z,102302.38
2022-08-08T21:12:17.314Z,102299.91
2022-08-08T21:17:56.155Z,102230.16
2022-08-08T21:23:25.049Z,102296.00
2022-08-08T21:29:03.577Z,102220.88
2022-08-08T21:34:33.092Z,102288.91
2022-08-08T21:39:57.023Z,102236.28
2022-08-08T21:45:44.671Z,102170.28
2022-08-08T21:51:09.378Z,102271.41
2022-08-08T21:56:42.223Z,102307.56
2022-08-08T22:02:06.826Z,102320.78
2022-08-08T22:07:40.525Z,102243.47
2022-08-08T22:13:18.767Z,102249.28
2022-08-08T22:18:48.200Z,102264.88
2022-08-08T22:24:28.007Z,102330.16
2022-08-08T22:30:06.256Z,102338.88
2022-08-08T22:36:04.656Z,102335.84
2022-08-08T22:41:35.360Z,102335.44
2022-08-08T22:47:17.993Z,102341.56
2022-08-08T22:52:58.790Z,102339.16
2022-08-08T22:58:27.464Z,102332.66
2022-08-08T23:03:54.497Z,102322.94
2022-08-08T23:09:18.472Z,102311.03
2022-08-08T23:14:53.462Z,102323.75
2022-08-08T23:20:27.300Z,102351.19
2022-08-08T23:25:50.880Z,102347.97
2022-08-08T23:31:16.821Z,102283.03
2022-08-08T23:36:40.991Z,102365.38
2022-08-08T23:42:08.201Z,102356.81
2022-08-08T23:49:03.891Z,102018.84
2022-08-08T23:53:30.808Z,102330.44
2022-08-08T23:59:02.180Z,102344.59
